sensor_id;sensor_type;location;lat;lon;timestamp;temperature;humidity
57058;DHT22;74999;52.848;6.748;2023-12-20T00:01:22;6.10;99.90
57058;DHT22;74999;52.848;6.748;2023-12-20T00:03:47;6.00;99.90
57058;DHT22;74999;52.848;6.748;2023-12-20T00:06:13;6.10;99.90
57058;DHT22;74999;52.848;6.748;2023-12-20T00:08:39;6.10;99.90
57058;DHT22;74999;52.848;6.748;2023-12-20T00:11:04;6.10;99.90
57058;DHT22;74999;52.848;6.748;2023-12-20T00:13:30;6.20;99.90
57058;DHT22;74999;52.848;6.748;2023-12-20T00:15:55;6.20;99.90
57058;DHT22;74999;52.848;6.748;2023-12-20T00:18:21;6.20;99.90
57058;DHT22;74999;52.848;6.748;2023-12-20T00:20:47;6.20;99.90
57058;DHT22;74999;52.848;6.748;2023-12-20T00:23:12;6.30;99.90
57058;DHT22;74999;52.848;6.748;2023-12-20T00:25:38;6.30;99.90
57058;DHT22;74999;52.848;6.748;2023-12-20T00:28:03;6.20;99.90
57058;DHT22;74999;52.848;6.748;2023-12-20T00:30:29;6.10;99.90
57058;DHT22;74999;52.848;6.748;2023-12-20T00:32:55;6.20;99.90
57058;DHT22;74999;52.848;6.748;2023-12-20T00:35:21;6.10;99.90
57058;DHT22;74999;52.848;6.748;2023-12-20T00:37:47;6.30;99.90
57058;DHT22;74999;52.848;6.748;2023-12-20T00:40:12;6.20;99.90
57058;DHT22;74999;52.848;6.748;2023-12-20T00:42:38;6.20;99.90
57058;DHT22;74999;52.848;6.748;2023-12-20T00:45:04;6.10;99.90
57058;DHT22;74999;52.848;6.748;2023-12-20T00:47:30;6.10;99.90
57058;DHT22;74999;52.848;6.748;2023-12-20T00:49:57;6.10;99.90
57058;DHT22;74999;52.848;6.748;2023-12-20T00:52:23;6.10;99.90
57058;DHT22;74999;52.848;6.748;2023-12-20T00:54:49;6.10;99.90
57058;DHT22;74999;52.848;6.748;2023-12-20T00:57:14;6.00;99.90
57058;DHT22;74999;52.848;6.748;2023-12-20T00:59:40;6.00;99.90
57058;DHT22;74999;52.848;6.748;2023-12-20T01:02:06;6.00;99.90
57058;DHT22;74999;52.848;6.748;2023-12-20T01:04:31;5.90;99.90
57058;DHT22;74999;52.848;6.748;2023-12-20T01:06:57;6.00;99.90
57058;DHT22;74999;52.848;6.748;2023-12-20T01:09:22;6.00;99.90
57058;DHT22;74999;52.848;6.748;2023-12-20T01:11:54;6.00;99.90
57058;DHT22;74999;52.848;6.748;2023-12-20T01:14:20;6.00;99.90
57058;DHT22;74999;52.848;6.748;2023-12-20T01:16:46;6.00;99.90
57058;DHT22;74999;52.848;6.748;2023-12-20T01:19:12;6.00;99.90
57058;DHT22;74999;52.848;6.748;2023-12-20T01:21:38;6.00;99.90
57058;DHT22;74999;52.848;6.748;2023-12-20T01:24:04;6.10;99.90
57058;DHT22;74999;52.848;6.748;2023-12-20T01:26:29;6.10;99.90
57058;DHT22;74999;52.848;6.748;2023-12-20T01:28:55;6.00;99.90
57058;DHT22;74999;52.848;6.748;2023-12-20T01:31:20;6.00;99.90
57058;DHT22;74999;52.848;6.748;2023-12-20T01:33:46;6.10;99.90
57058;DHT22;74999;52.848;6.748;2023-12-20T01:36:11;6.00;99.90
57058;DHT22;74999;52.848;6.748;2023-12-20T01:38:37;6.00;99.90
57058;DHT22;74999;52.848;6.748;2023-12-20T01:41:03;6.10;99.90
57058;DHT22;74999;52.848;6.748;2023-12-20T01:43:29;6.00;99.90
57058;DHT22;74999;52.848;6.748;2023-12-20T01:45:59;6.00;99.90
57058;DHT22;74999;52.848;6.748;2023-12-20T01:48:25;6.00;99.90
57058;DHT22;74999;52.848;6.748;2023-12-20T01:50:54;6.00;99.90
57058;DHT22;74999;52.848;6.748;2023-12-20T01:53:21;6.00;99.90
57058;DHT22;74999;52.848;6.748;2023-12-20T01:55:50;6.10;99.90
57058;DHT22;74999;52.848;6.748;2023-12-20T01:58:19;6.00;99.90
57058;DHT22;74999;52.848;6.748;2023-12-20T02:00:44;6.10;99.90
57058;DHT22;74999;52.848;6.748;2023-12-20T02:03:10;6.00;99.90
57058;DHT22;74999;52.848;6.748;2023-12-20T02:05:38;5.90;99.90
57058;DHT22;74999;52.848;6.748;2023-12-20T02:08:04;6.00;99.90
57058;DHT22;74999;52.848;6.748;2023-12-20T02:10:31;5.90;99.90
57058;DHT22;74999;52.848;6.748;2023-12-20T02:12:57;6.00;99.90
57058;DHT22;74999;52.848;6.748;2023-12-20T02:15:22;6.00;99.90
57058;DHT22;74999;52.848;6.748;2023-12-20T02:17:49;6.00;99.90
57058;DHT22;74999;52.848;6.748;2023-12-20T02:20:15;6.00;99.90
57058;DHT22;74999;52.848;6.748;2023-12-20T02:22:40;6.10;99.90
57058;DHT22;74999;52.848;6.748;2023-12-20T02:25:06;6.10;99.90
57058;DHT22;74999;52.848;6.748;2023-12-20T02:27:32;6.10;99.90
57058;DHT22;74999;52.848;6.748;2023-12-20T02:29:57;6.20;99.90
57058;DHT22;74999;52.848;6.748;2023-12-20T02:32:24;6.20;99.90
57058;DHT22;74999;52.848;6.748;2023-12-20T02:34:53;6.30;99.90
57058;DHT22;74999;52.848;6.748;2023-12-20T02:37:18;6.30;99.90
57058;DHT22;74999;52.848;6.748;2023-12-20T02:39:44;6.30;99.90
57058;DHT22;74999;52.848;6.748;2023-12-20T02:42:09;6.30;99.90
57058;DHT22;74999;52.848;6.748;2023-12-20T02:44:35;6.30;99.90
57058;DHT22;74999;52.848;6.748;2023-12-20T02:47:02;6.30;99.90
57058;DHT22;74999;52.848;6.748;2023-12-20T02:49:27;6.50;99.90
57058;DHT22;74999;52.848;6.748;2023-12-20T02:51:53;6.30;99.90
57058;DHT22;74999;52.848;6.748;2023-12-20T02:54:18;6.30;99.90
57058;DHT22;74999;52.848;6.748;2023-12-20T02:56:44;6.30;99.90
57058;DHT22;74999;52.848;6.748;2023-12-20T02:59:09;6.30;99.90
57058;DHT22;74999;52.848;6.748;2023-12-20T03:01:35;6.30;99.90
57058;DHT22;74999;52.848;6.748;2023-12-20T03:04:06;6.40;99.90
57058;DHT22;74999;52.848;6.748;2023-12-20T03:06:32;6.40;99.90
57058;DHT22;74999;52.848;6.748;2023-12-20T03:08:57;6.40;99.90
57058;DHT22;74999;52.848;6.748;2023-12-20T03:11:26;6.40;99.90
57058;DHT22;74999;52.848;6.748;2023-12-20T03:13:52;6.40;99.90
57058;DHT22;74999;52.848;6.748;2023-12-20T03:16:17;6.40;99.90
57058;DHT22;74999;52.848;6.748;2023-12-20T03:18:43;6.50;99.90
57058;DHT22;74999;52.848;6.748;2023-12-20T03:21:09;6.50;99.90
57058;DHT22;74999;52.848;6.748;2023-12-20T03:23:34;6.50;99.90
57058;DHT22;74999;52.848;6.748;2023-12-20T03:26:00;6.40;99.90
57058;DHT22;74999;52.848;6.748;2023-12-20T03:28:29;6.50;99.90
57058;DHT22;74999;52.848;6.748;2023-12-20T03:30:55;6.40;99.90
57058;DHT22;74999;52.848;6.748;2023-12-20T03:33:20;6.40;99.90
57058;DHT22;74999;52.848;6.748;2023-12-20T03:35:46;6.50;99.90
57058;DHT22;74999;52.848;6.748;2023-12-20T03:38:12;6.40;99.90
57058;DHT22;74999;52.848;6.748;2023-12-20T03:40:37;6.40;99.90
57058;DHT22;74999;52.848;6.748;2023-12-20T03:43:03;6.40;99.90
57058;DHT22;74999;52.848;6.748;2023-12-20T03:45:29;6.30;99.90
57058;DHT22;74999;52.848;6.748;2023-12-20T03:47:54;6.40;99.90
57058;DHT22;74999;52.848;6.748;2023-12-20T03:50:25;6.30;99.90
57058;DHT22;74999;52.848;6.748;2023-12-20T03:52:51;6.30;99.90
57058;DHT22;74999;52.848;6.748;2023-12-20T03:55:17;6.40;99.90
57058;DHT22;74999;52.848;6.748;2023-12-20T03:57:42;6.40;99.90
57058;DHT22;74999;52.848;6.748;2023-12-20T04:00:08;6.40;99.90
57058;DHT22;74999;52.848;6.748;2023-12-20T04:02:38;6.40;99.90
57058;DHT22;74999;52.848;6.748;2023-12-20T04:05:04;6.50;99.90
57058;DHT22;74999;52.848;6.748;2023-12-20T04:07:30;6.50;99.90
57058;DHT22;74999;52.848;6.748;2023-12-20T04:09:56;6.50;99.90
57058;DHT22;74999;52.848;6.748;2023-12-20T04:12:21;6.50;99.90
57058;DHT22;74999;52.848;6.748;2023-12-20T04:14:47;6.50;99.90
57058;DHT22;74999;52.848;6.748;2023-12-20T04:17:12;6.60;99.90
57058;DHT22;74999;52.848;6.748;2023-12-20T04:19:38;6.60;99.90
57058;DHT22;74999;52.848;6.748;2023-12-20T04:22:03;6.50;99.90
57058;DHT22;74999;52.848;6.748;2023-12-20T04:24:29;6.50;99.90
57058;DHT22;74999;52.848;6.748;2023-12-20T04:26:55;6.50;99.90
57058;DHT22;74999;52.848;6.748;2023-12-20T04:29:20;6.50;99.90
57058;DHT22;74999;52.848;6.748;2023-12-20T04:31:46;6.40;99.90
57058;DHT22;74999;52.848;6.748;2023-12-20T04:34:11;6.50;99.90
57058;DHT22;74999;52.848;6.748;2023-12-20T04:36:37;6.60;99.90
57058;DHT22;74999;52.848;6.748;2023-12-20T04:39:02;6.50;99.90
57058;DHT22;74999;52.848;6.748;2023-12-20T04:41:28;6.40;99.90
57058;DHT22;74999;52.848;6.748;2023-12-20T04:43:54;6.40;99.90
57058;DHT22;74999;52.848;6.748;2023-12-20T04:46:19;6.50;99.90
57058;DHT22;74999;52.848;6.748;2023-12-20T04:48:45;6.50;99.90
57058;DHT22;74999;52.848;6.748;2023-12-20T04:51:10;6.60;99.90
57058;DHT22;74999;52.848;6.748;2023-12-20T04:53:36;6.50;99.90
57058;DHT22;74999;52.848;6.748;2023-12-20T04:56:01;6.50;99.90
57058;DHT22;74999;52.848;6.748;2023-12-20T04:58:27;6.60;99.90
57058;DHT22;74999;52.848;6.748;2023-12-20T05:00:53;6.50;99.90
57058;DHT22;74999;52.848;6.748;2023-12-20T05:03:18;6.60;99.90
57058;DHT22;74999;52.848;6.748;2023-12-20T05:05:44;6.60;99.90
57058;DHT22;74999;52.848;6.748;2023-12-20T05:08:09;6.70;99.90
57058;DHT22;74999;52.848;6.748;2023-12-20T05:10:35;6.60;99.90
57058;DHT22;74999;52.848;6.748;2023-12-20T05:13:01;6.70;99.90
57058;DHT22;74999;52.848;6.748;2023-12-20T05:15:27;6.60;99.90
57058;DHT22;74999;52.848;6.748;2023-12-20T05:17:52;6.60;99.90
57058;DHT22;74999;52.848;6.748;2023-12-20T05:20:18;6.70;99.90
57058;DHT22;74999;52.848;6.748;2023-12-20T05:22:44;6.70;99.90
57058;DHT22;74999;52.848;6.748;2023-12-20T05:25:10;6.70;99.90
57058;DHT22;74999;52.848;6.748;2023-12-20T05:27:36;6.70;99.90
57058;DHT22;74999;52.848;6.748;2023-12-20T05:30:01;6.80;99.90
57058;DHT22;74999;52.848;6.748;2023-12-20T05:32:27;6.70;99.90
57058;DHT22;74999;52.848;6.748;2023-12-20T05:34:53;6.60;99.90
57058;DHT22;74999;52.848;6.748;2023-12-20T05:37:18;6.70;99.90
57058;DHT22;74999;52.848;6.748;2023-12-20T05:39:44;6.70;99.90
57058;DHT22;74999;52.848;6.748;2023-12-20T05:42:09;6.90;99.90
57058;DHT22;74999;52.848;6.748;2023-12-20T05:44:35;6.80;99.90
57058;DHT22;74999;52.848;6.748;2023-12-20T05:47:00;6.80;99.90
57058;DHT22;74999;52.848;6.748;2023-12-20T05:49:26;6.80;99.90
57058;DHT22;74999;52.848;6.748;2023-12-20T05:51:52;6.90;99.90
57058;DHT22;74999;52.848;6.748;2023-12-20T05:54:17;6.90;99.90
57058;DHT22;74999;52.848;6.748;2023-12-20T05:56:43;7.00;99.90
57058;DHT22;74999;52.848;6.748;2023-12-20T05:59:08;6.90;99.90
57058;DHT22;74999;52.848;6.748;2023-12-20T06:01:34;7.00;99.90
57058;DHT22;74999;52.848;6.748;2023-12-20T06:04:00;7.00;99.90
57058;DHT22;74999;52.848;6.748;2023-12-20T06:06:25;7.00;99.90
57058;DHT22;74999;52.848;6.748;2023-12-20T06:08:51;7.00;99.90
57058;DHT22;74999;52.848;6.748;2023-12-20T06:11:16;7.00;99.90
57058;DHT22;74999;52.848;6.748;2023-12-20T06:13:42;7.00;99.90
57058;DHT22;74999;52.848;6.748;2023-12-20T06:16:08;7.00;99.90
57058;DHT22;74999;52.848;6.748;2023-12-20T06:18:33;7.00;99.90
57058;DHT22;74999;52.848;6.748;2023-12-20T06:20:59;6.90;99.90
57058;DHT22;74999;52.848;6.748;2023-12-20T06:23:24;7.00;99.90
57058;DHT22;74999;52.848;6.748;2023-12-20T06:25:50;7.10;99.90
57058;DHT22;74999;52.848;6.748;2023-12-20T06:28:15;7.10;99.90
57058;DHT22;74999;52.848;6.748;2023-12-20T06:30:41;7.00;99.90
57058;DHT22;74999;52.848;6.748;2023-12-20T06:33:07;7.00;99.90
57058;DHT22;74999;52.848;6.748;2023-12-20T06:35:32;7.10;99.90
57058;DHT22;74999;52.848;6.748;2023-12-20T06:37:58;7.10;99.90
57058;DHT22;74999;52.848;6.748;2023-12-20T06:40:23;7.20;99.90
57058;DHT22;74999;52.848;6.748;2023-12-20T06:42:49;7.20;99.90
57058;DHT22;74999;52.848;6.748;2023-12-20T06:45:15;7.20;99.90
57058;DHT22;74999;52.848;6.748;2023-12-20T06:47:40;7.20;99.90
57058;DHT22;74999;52.848;6.748;2023-12-20T06:50:06;7.20;99.90
57058;DHT22;74999;52.848;6.748;2023-12-20T06:52:33;7.20;99.90
57058;DHT22;74999;52.848;6.748;2023-12-20T06:55:00;7.20;99.90
57058;DHT22;74999;52.848;6.748;2023-12-20T06:57:25;7.20;99.90
57058;DHT22;74999;52.848;6.748;2023-12-20T06:59:51;7.30;99.90
57058;DHT22;74999;52.848;6.748;2023-12-20T07:02:17;7.20;99.90
57058;DHT22;74999;52.848;6.748;2023-12-20T07:04:43;7.20;99.90
57058;DHT22;74999;52.848;6.748;2023-12-20T07:07:08;7.20;99.90
57058;DHT22;74999;52.848;6.748;2023-12-20T07:09:34;7.20;99.90
57058;DHT22;74999;52.848;6.748;2023-12-20T07:12:00;7.20;99.90
57058;DHT22;74999;52.848;6.748;2023-12-20T07:14:25;7.30;99.90
57058;DHT22;74999;52.848;6.748;2023-12-20T07:16:51;7.30;99.90
57058;DHT22;74999;52.848;6.748;2023-12-20T07:19:16;7.20;99.90
57058;DHT22;74999;52.848;6.748;2023-12-20T07:21:42;7.30;99.90
57058;DHT22;74999;52.848;6.748;2023-12-20T07:24:08;7.30;99.90
57058;DHT22;74999;52.848;6.748;2023-12-20T07:26:33;7.30;99.90
57058;DHT22;74999;52.848;6.748;2023-12-20T07:29:00;7.20;99.90
57058;DHT22;74999;52.848;6.748;2023-12-20T07:31:25;7.30;99.90
57058;DHT22;74999;52.848;6.748;2023-12-20T07:33:51;7.30;99.90
57058;DHT22;74999;52.848;6.748;2023-12-20T07:36:16;7.30;99.90
57058;DHT22;74999;52.848;6.748;2023-12-20T07:38:42;7.20;99.90
57058;DHT22;74999;52.848;6.748;2023-12-20T07:41:10;7.30;99.90
57058;DHT22;74999;52.848;6.748;2023-12-20T07:43:36;7.30;99.90
57058;DHT22;74999;52.848;6.748;2023-12-20T07:46:08;7.40;99.90
57058;DHT22;74999;52.848;6.748;2023-12-20T07:48:37;7.30;99.90
57058;DHT22;74999;52.848;6.748;2023-12-20T07:51:03;7.30;99.90
57058;DHT22;74999;52.848;6.748;2023-12-20T07:53:29;7.30;99.90
57058;DHT22;74999;52.848;6.748;2023-12-20T07:55:55;7.40;99.90
57058;DHT22;74999;52.848;6.748;2023-12-20T07:58:21;7.30;99.90
57058;DHT22;74999;52.848;6.748;2023-12-20T08:00:47;7.30;99.90
57058;DHT22;74999;52.848;6.748;2023-12-20T08:03:13;7.30;99.90
57058;DHT22;74999;52.848;6.748;2023-12-20T08:05:38;7.30;99.90
57058;DHT22;74999;52.848;6.748;2023-12-20T08:08:06;7.30;99.90
57058;DHT22;74999;52.848;6.748;2023-12-20T08:10:32;7.30;99.90
57058;DHT22;74999;52.848;6.748;2023-12-20T08:12:58;7.40;99.90
57058;DHT22;74999;52.848;6.748;2023-12-20T08:15:23;7.40;99.90
57058;DHT22;74999;52.848;6.748;2023-12-20T08:17:49;7.40;99.90
57058;DHT22;74999;52.848;6.748;2023-12-20T08:20:18;7.50;99.90
57058;DHT22;74999;52.848;6.748;2023-12-20T08:22:44;7.50;99.90
57058;DHT22;74999;52.848;6.748;2023-12-20T08:25:09;7.60;99.90
57058;DHT22;74999;52.848;6.748;2023-12-20T08:27:41;7.50;99.90
57058;DHT22;74999;52.848;6.748;2023-12-20T08:30:08;7.60;99.90
57058;DHT22;74999;52.848;6.748;2023-12-20T08:32:34;7.60;99.90
57058;DHT22;74999;52.848;6.748;2023-12-20T08:35:00;7.60;99.90
57058;DHT22;74999;52.848;6.748;2023-12-20T08:37:25;7.70;99.90
57058;DHT22;74999;52.848;6.748;2023-12-20T08:39:51;7.70;99.90
57058;DHT22;74999;52.848;6.748;2023-12-20T08:42:16;7.70;99.90
57058;DHT22;74999;52.848;6.748;2023-12-20T08:44:42;7.70;99.90
57058;DHT22;74999;52.848;6.748;2023-12-20T08:47:07;7.80;99.90
57058;DHT22;74999;52.848;6.748;2023-12-20T08:49:33;7.80;99.90
57058;DHT22;74999;52.848;6.748;2023-12-20T08:51:59;7.80;99.90
57058;DHT22;74999;52.848;6.748;2023-12-20T08:54:24;7.80;99.90
57058;DHT22;74999;52.848;6.748;2023-12-20T08:56:50;7.80;99.90
57058;DHT22;74999;52.848;6.748;2023-12-20T08:59:15;7.90;99.90
57058;DHT22;74999;52.848;6.748;2023-12-20T09:01:41;7.80;99.90
57058;DHT22;74999;52.848;6.748;2023-12-20T09:04:07;7.80;99.90
57058;DHT22;74999;52.848;6.748;2023-12-20T09:06:32;7.90;99.90
57058;DHT22;74999;52.848;6.748;2023-12-20T09:08:58;7.90;99.90
57058;DHT22;74999;52.848;6.748;2023-12-20T09:11:23;7.90;99.90
57058;DHT22;74999;52.848;6.748;2023-12-20T09:13:49;7.90;99.90
57058;DHT22;74999;52.848;6.748;2023-12-20T09:16:15;7.90;99.90
57058;DHT22;74999;52.848;6.748;2023-12-20T09:18:41;8.00;99.90
57058;DHT22;74999;52.848;6.748;2023-12-20T09:21:07;8.00;99.90
57058;DHT22;74999;52.848;6.748;2023-12-20T09:23:33;8.00;99.90
57058;DHT22;74999;52.848;6.748;2023-12-20T09:25:58;8.00;99.90
57058;DHT22;74999;52.848;6.748;2023-12-20T09:28:24;8.00;99.90
57058;DHT22;74999;52.848;6.748;2023-12-20T09:30:49;8.10;99.90
57058;DHT22;74999;52.848;6.748;2023-12-20T09:33:15;8.10;99.90
57058;DHT22;74999;52.848;6.748;2023-12-20T09:35:42;8.10;99.90
57058;DHT22;74999;52.848;6.748;2023-12-20T09:38:07;8.20;99.90
57058;DHT22;74999;52.848;6.748;2023-12-20T09:40:34;8.10;99.90
57058;DHT22;74999;52.848;6.748;2023-12-20T09:43:10;8.30;99.90
57058;DHT22;74999;52.848;6.748;2023-12-20T09:45:36;8.40;99.90
57058;DHT22;74999;52.848;6.748;2023-12-20T09:48:01;8.60;99.90
57058;DHT22;74999;52.848;6.748;2023-12-20T09:50:30;8.50;99.90
57058;DHT22;74999;52.848;6.748;2023-12-20T09:52:58;8.70;99.90
57058;DHT22;74999;52.848;6.748;2023-12-20T09:55:25;8.70;99.90
57058;DHT22;74999;52.848;6.748;2023-12-20T09:57:51;8.70;99.90
57058;DHT22;74999;52.848;6.748;2023-12-20T10:00:17;8.70;99.90
57058;DHT22;74999;52.848;6.748;2023-12-20T10:03:09;8.60;99.90
57058;DHT22;74999;52.848;6.748;2023-12-20T10:05:35;8.30;99.90
57058;DHT22;74999;52.848;6.748;2023-12-20T10:08:01;8.00;99.90
57058;DHT22;74999;52.848;6.748;2023-12-20T10:10:27;7.70;99.90
57058;DHT22;74999;52.848;6.748;2023-12-20T10:13:07;7.60;99.90
57058;DHT22;74999;52.848;6.748;2023-12-20T10:15:35;7.50;99.90
57058;DHT22;74999;52.848;6.748;2023-12-20T10:18:01;7.40;99.90
57058;DHT22;74999;52.848;6.748;2023-12-20T10:20:28;7.40;99.90
57058;DHT22;74999;52.848;6.748;2023-12-20T10:22:57;7.20;99.90
57058;DHT22;74999;52.848;6.748;2023-12-20T10:25:23;7.20;99.90
57058;DHT22;74999;52.848;6.748;2023-12-20T10:27:50;7.10;99.90
57058;DHT22;74999;52.848;6.748;2023-12-20T10:30:33;7.20;99.90
57058;DHT22;74999;52.848;6.748;2023-12-20T10:32:59;7.10;99.90
57058;DHT22;74999;52.848;6.748;2023-12-20T10:35:24;7.10;99.90
57058;DHT22;74999;52.848;6.748;2023-12-20T10:37:52;7.10;99.90
57058;DHT22;74999;52.848;6.748;2023-12-20T10:40:20;7.10;99.90
57058;DHT22;74999;52.848;6.748;2023-12-20T10:42:47;7.20;99.90
57058;DHT22;74999;52.848;6.748;2023-12-20T10:45:12;7.10;99.90
57058;DHT22;74999;52.848;6.748;2023-12-20T10:47:40;7.00;99.90
57058;DHT22;74999;52.848;6.748;2023-12-20T10:50:07;7.10;99.90
57058;DHT22;74999;52.848;6.748;2023-12-20T10:52:34;7.10;99.90
57058;DHT22;74999;52.848;6.748;2023-12-20T10:55:01;7.20;99.90
57058;DHT22;74999;52.848;6.748;2023-12-20T10:57:27;7.20;99.90
57058;DHT22;74999;52.848;6.748;2023-12-20T10:59:54;7.20;99.90
57058;DHT22;74999;52.848;6.748;2023-12-20T11:02:20;7.30;99.90
57058;DHT22;74999;52.848;6.748;2023-12-20T11:05:01;7.40;99.90
57058;DHT22;74999;52.848;6.748;2023-12-20T11:07:36;7.40;99.90
57058;DHT22;74999;52.848;6.748;2023-12-20T11:10:07;7.40;99.90
57058;DHT22;74999;52.848;6.748;2023-12-20T11:12:57;7.50;99.90
57058;DHT22;74999;52.848;6.748;2023-12-20T11:15:25;7.50;99.90
57058;DHT22;74999;52.848;6.748;2023-12-20T11:17:55;7.40;99.90
57058;DHT22;74999;52.848;6.748;2023-12-20T11:20:38;7.40;99.90
57058;DHT22;74999;52.848;6.748;2023-12-20T11:23:05;7.20;99.90
57058;DHT22;74999;52.848;6.748;2023-12-20T11:25:46;7.30;99.90
57058;DHT22;74999;52.848;6.748;2023-12-20T11:28:12;7.30;99.90
57058;DHT22;74999;52.848;6.748;2023-12-20T11:30:57;7.40;99.90
57058;DHT22;74999;52.848;6.748;2023-12-20T11:33:51;7.50;99.90
57058;DHT22;74999;52.848;6.748;2023-12-20T11:36:20;7.50;99.90
57058;DHT22;74999;52.848;6.748;2023-12-20T11:38:58;7.50;99.90
57058;DHT22;74999;52.848;6.748;2023-12-20T11:41:25;7.50;99.90
57058;DHT22;74999;52.848;6.748;2023-12-20T11:43:54;7.70;99.90
57058;DHT22;74999;52.848;6.748;2023-12-20T11:46:21;7.70;99.90
57058;DHT22;74999;52.848;6.748;2023-12-20T11:48:48;7.70;99.90
57058;DHT22;74999;52.848;6.748;2023-12-20T11:51:14;7.60;99.90
57058;DHT22;74999;52.848;6.748;2023-12-20T11:53:40;7.60;99.90
57058;DHT22;74999;52.848;6.748;2023-12-20T11:56:08;7.60;99.90
57058;DHT22;74999;52.848;6.748;2023-12-20T11:58:34;7.60;99.90
57058;DHT22;74999;52.848;6.748;2023-12-20T12:00:59;7.70;99.90
57058;DHT22;74999;52.848;6.748;2023-12-20T12:03:25;7.60;99.90
57058;DHT22;74999;52.848;6.748;2023-12-20T12:05:51;7.70;99.90
57058;DHT22;74999;52.848;6.748;2023-12-20T12:08:17;7.70;99.90
57058;DHT22;74999;52.848;6.748;2023-12-20T12:10:44;7.60;99.90
57058;DHT22;74999;52.848;6.748;2023-12-20T12:13:09;7.80;99.90
57058;DHT22;74999;52.848;6.748;2023-12-20T12:15:36;7.70;99.90
57058;DHT22;74999;52.848;6.748;2023-12-20T12:18:02;7.80;99.90
57058;DHT22;74999;52.848;6.748;2023-12-20T12:20:27;7.70;99.90
57058;DHT22;74999;52.848;6.748;2023-12-20T12:23:04;7.70;99.90
57058;DHT22;74999;52.848;6.748;2023-12-20T12:25:31;7.70;99.90
57058;DHT22;74999;52.848;6.748;2023-12-20T12:27:58;7.80;99.90
57058;DHT22;74999;52.848;6.748;2023-12-20T12:30:24;7.70;99.90
57058;DHT22;74999;52.848;6.748;2023-12-20T12:32:51;7.80;99.90
57058;DHT22;74999;52.848;6.748;2023-12-20T12:35:17;7.80;99.90
57058;DHT22;74999;52.848;6.748;2023-12-20T12:37:43;7.70;99.90
57058;DHT22;74999;52.848;6.748;2023-12-20T12:40:16;7.70;99.90
57058;DHT22;74999;52.848;6.748;2023-12-20T12:42:44;7.70;99.90
57058;DHT22;74999;52.848;6.748;2023-12-20T12:45:10;7.90;99.90
57058;DHT22;74999;52.848;6.748;2023-12-20T12:47:37;7.70;99.90
57058;DHT22;74999;52.848;6.748;2023-12-20T12:50:02;7.70;99.90
57058;DHT22;74999;52.848;6.748;2023-12-20T12:52:28;7.80;99.90
57058;DHT22;74999;52.848;6.748;2023-12-20T12:54:54;7.70;99.90
57058;DHT22;74999;52.848;6.748;2023-12-20T12:57:19;7.70;99.90
57058;DHT22;74999;52.848;6.748;2023-12-20T12:59:45;7.70;99.90
57058;DHT22;74999;52.848;6.748;2023-12-20T13:02:12;7.60;99.90
57058;DHT22;74999;52.848;6.748;2023-12-20T13:04:42;7.70;99.90
57058;DHT22;74999;52.848;6.748;2023-12-20T13:07:08;7.50;99.90
57058;DHT22;74999;52.848;6.748;2023-12-20T13:09:36;7.50;99.90
57058;DHT22;74999;52.848;6.748;2023-12-20T13:12:02;7.60;99.90
57058;DHT22;74999;52.848;6.748;2023-12-20T13:14:31;7.50;99.90
57058;DHT22;74999;52.848;6.748;2023-12-20T13:16:58;7.60;99.90
57058;DHT22;74999;52.848;6.748;2023-12-20T13:19:23;7.60;99.90
57058;DHT22;74999;52.848;6.748;2023-12-20T13:21:49;7.60;99.90
57058;DHT22;74999;52.848;6.748;2023-12-20T13:24:14;7.50;99.90
57058;DHT22;74999;52.848;6.748;2023-12-20T13:26:40;7.50;99.90
57058;DHT22;74999;52.848;6.748;2023-12-20T13:29:05;7.50;99.90
57058;DHT22;74999;52.848;6.748;2023-12-20T13:31:31;7.50;99.90
57058;DHT22;74999;52.848;6.748;2023-12-20T13:33:57;7.30;99.90
57058;DHT22;74999;52.848;6.748;2023-12-20T13:36:22;7.30;99.90
57058;DHT22;74999;52.848;6.748;2023-12-20T13:38:48;7.30;99.90
57058;DHT22;74999;52.848;6.748;2023-12-20T13:41:13;7.30;99.90
57058;DHT22;74999;52.848;6.748;2023-12-20T13:43:39;7.20;99.90
57058;DHT22;74999;52.848;6.748;2023-12-20T13:46:05;7.20;99.90
57058;DHT22;74999;52.848;6.748;2023-12-20T13:48:30;7.10;99.90
57058;DHT22;74999;52.848;6.748;2023-12-20T13:50:56;7.20;99.90
57058;DHT22;74999;52.848;6.748;2023-12-20T13:53:22;7.00;99.90
57058;DHT22;74999;52.848;6.748;2023-12-20T13:55:47;7.10;99.90
57058;DHT22;74999;52.848;6.748;2023-12-20T13:58:13;7.10;99.90
57058;DHT22;74999;52.848;6.748;2023-12-20T14:00:40;7.10;99.90
57058;DHT22;74999;52.848;6.748;2023-12-20T14:03:06;7.00;99.90
57058;DHT22;74999;52.848;6.748;2023-12-20T14:05:32;7.00;99.90
57058;DHT22;74999;52.848;6.748;2023-12-20T14:07:58;7.10;99.90
57058;DHT22;74999;52.848;6.748;2023-12-20T14:10:24;7.00;99.90
57058;DHT22;74999;52.848;6.748;2023-12-20T14:12:54;6.90;99.90
57058;DHT22;74999;52.848;6.748;2023-12-20T14:15:19;6.90;99.90
57058;DHT22;74999;52.848;6.748;2023-12-20T14:17:45;6.90;99.90
57058;DHT22;74999;52.848;6.748;2023-12-20T14:20:11;6.90;99.90
57058;DHT22;74999;52.848;6.748;2023-12-20T14:22:39;6.90;99.90
57058;DHT22;74999;52.848;6.748;2023-12-20T14:25:11;6.80;99.90
57058;DHT22;74999;52.848;6.748;2023-12-20T14:27:37;6.80;99.90
57058;DHT22;74999;52.848;6.748;2023-12-20T14:30:03;6.90;99.90
57058;DHT22;74999;52.848;6.748;2023-12-20T14:32:29;6.90;99.90
57058;DHT22;74999;52.848;6.748;2023-12-20T14:34:54;6.80;99.90
57058;DHT22;74999;52.848;6.748;2023-12-20T14:37:20;6.90;99.90
57058;DHT22;74999;52.848;6.748;2023-12-20T14:39:46;6.80;99.90
57058;DHT22;74999;52.848;6.748;2023-12-20T14:42:11;6.80;99.90
57058;DHT22;74999;52.848;6.748;2023-12-20T14:44:42;6.90;99.90
57058;DHT22;74999;52.848;6.748;2023-12-20T14:47:08;6.90;99.90
57058;DHT22;74999;52.848;6.748;2023-12-20T14:49:34;6.90;99.90
57058;DHT22;74999;52.848;6.748;2023-12-20T14:52:00;6.90;99.90
57058;DHT22;74999;52.848;6.748;2023-12-20T14:54:26;6.90;99.90
57058;DHT22;74999;52.848;6.748;2023-12-20T14:56:51;6.80;99.90
57058;DHT22;74999;52.848;6.748;2023-12-20T14:59:17;6.90;99.90
57058;DHT22;74999;52.848;6.748;2023-12-20T15:01:43;6.80;99.90
57058;DHT22;74999;52.848;6.748;2023-12-20T15:04:09;6.80;99.90
57058;DHT22;74999;52.848;6.748;2023-12-20T15:06:35;6.80;99.90
57058;DHT22;74999;52.848;6.748;2023-12-20T15:09:01;6.90;99.90
57058;DHT22;74999;52.848;6.748;2023-12-20T15:11:31;6.90;99.90
57058;DHT22;74999;52.848;6.748;2023-12-20T15:13:57;6.90;99.90
57058;DHT22;74999;52.848;6.748;2023-12-20T15:16:23;6.80;99.90
57058;DHT22;74999;52.848;6.748;2023-12-20T15:18:49;6.80;99.90
57058;DHT22;74999;52.848;6.748;2023-12-20T15:21:16;6.90;99.90
57058;DHT22;74999;52.848;6.748;2023-12-20T15:23:42;6.80;99.90
57058;DHT22;74999;52.848;6.748;2023-12-20T15:26:20;6.90;99.90
57058;DHT22;74999;52.848;6.748;2023-12-20T15:28:46;6.70;99.90
57058;DHT22;74999;52.848;6.748;2023-12-20T15:31:12;6.80;99.90
57058;DHT22;74999;52.848;6.748;2023-12-20T15:33:40;6.80;99.90
57058;DHT22;74999;52.848;6.748;2023-12-20T15:36:06;6.90;99.90
57058;DHT22;74999;52.848;6.748;2023-12-20T15:38:31;6.80;99.90
57058;DHT22;74999;52.848;6.748;2023-12-20T15:40:57;6.70;99.90